sensor_id;sensor_type;location;lat;lon;timestamp;temperature;humidity
22167;DHT22;11249;52.468;13.776;2022-07-25T00:01:41;17.40;99.90
22167;DHT22;11249;52.468;13.776;2022-07-25T00:04:08;17.40;99.90
22167;DHT22;11249;52.468;13.776;2022-07-25T00:06:38;17.40;99.90
22167;DHT22;11249;52.468;13.776;2022-07-25T00:09:11;17.40;99.90
22167;DHT22;11249;52.468;13.776;2022-07-25T00:11:45;17.50;99.90
22167;DHT22;11249;52.468;13.776;2022-07-25T00:14:11;17.50;99.90
22167;DHT22;11249;52.468;13.776;2022-07-25T00:16:38;17.50;99.90
22167;DHT22;11249;52.468;13.776;2022-07-25T00:19:12;17.50;99.90
22167;DHT22;11249;52.468;13.776;2022-07-25T00:21:45;17.50;99.90
22167;DHT22;11249;52.468;13.776;2022-07-25T00:24:18;17.50;99.90
22167;DHT22;11249;52.468;13.776;2022-07-25T00:26:51;17.50;99.90
22167;DHT22;11249;52.468;13.776;2022-07-25T00:29:17;17.50;99.90
22167;DHT22;11249;52.468;13.776;2022-07-25T00:31:51;17.40;99.90
22167;DHT22;11249;52.468;13.776;2022-07-25T00:34:18;17.40;99.90
22167;DHT22;11249;52.468;13.776;2022-07-25T00:36:51;17.30;99.90
22167;DHT22;11249;52.468;13.776;2022-07-25T00:39:17;17.30;99.90
22167;DHT22;11249;52.468;13.776;2022-07-25T00:41:51;17.30;99.90
22167;DHT22;11249;52.468;13.776;2022-07-25T00:44:28;17.20;99.90
22167;DHT22;11249;52.468;13.776;2022-07-25T00:47:02;17.20;99.90
22167;DHT22;11249;52.468;13.776;2022-07-25T00:49:29;17.10;99.90
22167;DHT22;11249;52.468;13.776;2022-07-25T00:52:02;17.10;99.90
22167;DHT22;11249;52.468;13.776;2022-07-25T00:54:30;17.00;99.90
22167;DHT22;11249;52.468;13.776;2022-07-25T00:57:09;17.00;99.90
22167;DHT22;11249;52.468;13.776;2022-07-25T00:59:50;17.00;99.90
22167;DHT22;11249;52.468;13.776;2022-07-25T01:02:23;17.00;99.90
22167;DHT22;11249;52.468;13.776;2022-07-25T01:04:56;16.90;99.90
22167;DHT22;11249;52.468;13.776;2022-07-25T01:07:30;16.90;99.90
22167;DHT22;11249;52.468;13.776;2022-07-25T01:10:05;16.90;99.90
22167;DHT22;11249;52.468;13.776;2022-07-25T01:12:52;16.90;99.90
22167;DHT22;11249;52.468;13.776;2022-07-25T01:15:26;16.80;99.90
22167;DHT22;11249;52.468;13.776;2022-07-25T01:17:53;16.80;99.90
22167;DHT22;11249;52.468;13.776;2022-07-25T01:20:29;16.80;99.90
22167;DHT22;11249;52.468;13.776;2022-07-25T01:23:02;16.70;99.90
22167;DHT22;11249;52.468;13.776;2022-07-25T01:25:28;16.70;99.90
22167;DHT22;11249;52.468;13.776;2022-07-25T01:28:02;16.70;99.90
22167;DHT22;11249;52.468;13.776;2022-07-25T01:30:28;16.70;99.90
22167;DHT22;11249;52.468;13.776;2022-07-25T01:33:02;16.60;99.90
22167;DHT22;11249;52.468;13.776;2022-07-25T01:35:32;16.60;99.90
22167;DHT22;11249;52.468;13.776;2022-07-25T01:37:59;16.60;99.90
22167;DHT22;11249;52.468;13.776;2022-07-25T01:40:32;16.50;99.90
22167;DHT22;11249;52.468;13.776;2022-07-25T01:42:58;16.50;99.90
22167;DHT22;11249;52.468;13.776;2022-07-25T01:45:25;16.50;99.90
22167;DHT22;11249;52.468;13.776;2022-07-25T01:47:59;16.50;99.90
22167;DHT22;11249;52.468;13.776;2022-07-25T01:50:32;16.50;99.90
22167;DHT22;11249;52.468;13.776;2022-07-25T01:52:58;16.50;99.90
22167;DHT22;11249;52.468;13.776;2022-07-25T01:55:39;16.50;99.90
22167;DHT22;11249;52.468;13.776;2022-07-25T01:58:19;16.50;99.90
22167;DHT22;11249;52.468;13.776;2022-07-25T02:00:53;16.50;99.90
22167;DHT22;11249;52.468;13.776;2022-07-25T02:03:26;16.50;99.90
22167;DHT22;11249;52.468;13.776;2022-07-25T02:06:05;16.50;99.90
22167;DHT22;11249;52.468;13.776;2022-07-25T02:08:32;16.40;99.90
22167;DHT22;11249;52.468;13.776;2022-07-25T02:11:00;16.40;99.90
22167;DHT22;11249;52.468;13.776;2022-07-25T02:13:34;16.40;99.90
22167;DHT22;11249;52.468;13.776;2022-07-25T02:16:00;16.40;99.90
22167;DHT22;11249;52.468;13.776;2022-07-25T02:18:34;16.30;99.90
22167;DHT22;11249;52.468;13.776;2022-07-25T02:21:01;16.30;99.90
22167;DHT22;11249;52.468;13.776;2022-07-25T02:23:27;16.30;99.90
22167;DHT22;11249;52.468;13.776;2022-07-25T02:26:01;16.30;99.90
22167;DHT22;11249;52.468;13.776;2022-07-25T02:28:28;16.20;99.90
22167;DHT22;11249;52.468;13.776;2022-07-25T02:31:02;16.20;99.90
22167;DHT22;11249;52.468;13.776;2022-07-25T02:33:36;16.20;99.90
22167;DHT22;11249;52.468;13.776;2022-07-25T02:36:03;16.20;99.90
22167;DHT22;11249;52.468;13.776;2022-07-25T02:38:30;16.10;99.90
22167;DHT22;11249;52.468;13.776;2022-07-25T02:41:03;16.10;99.90
22167;DHT22;11249;52.468;13.776;2022-07-25T02:43:30;16.00;99.90
22167;DHT22;11249;52.468;13.776;2022-07-25T02:45:56;16.00;99.90
22167;DHT22;11249;52.468;13.776;2022-07-25T02:48:30;16.00;99.90
22167;DHT22;11249;52.468;13.776;2022-07-25T02:50:57;16.00;99.90
22167;DHT22;11249;52.468;13.776;2022-07-25T02:53:30;16.00;99.90
22167;DHT22;11249;52.468;13.776;2022-07-25T02:56:29;16.00;99.90
22167;DHT22;11249;52.468;13.776;2022-07-25T02:58:58;15.90;99.90
22167;DHT22;11249;52.468;13.776;2022-07-25T03:01:31;15.90;99.90
22167;DHT22;11249;52.468;13.776;2022-07-25T03:03:58;15.90;99.90
22167;DHT22;11249;52.468;13.776;2022-07-25T03:06:31;15.90;99.90
22167;DHT22;11249;52.468;13.776;2022-07-25T03:08:58;15.80;99.90
22167;DHT22;11249;52.468;13.776;2022-07-25T03:11:25;15.80;99.90
22167;DHT22;11249;52.468;13.776;2022-07-25T03:13:58;15.80;99.90
22167;DHT22;11249;52.468;13.776;2022-07-25T03:16:25;15.80;99.90
22167;DHT22;11249;52.468;13.776;2022-07-25T03:18:58;15.80;99.90
22167;DHT22;11249;52.468;13.776;2022-07-25T03:21:25;15.70;99.90
22167;DHT22;11249;52.468;13.776;2022-07-25T03:23:51;15.70;99.90
22167;DHT22;11249;52.468;13.776;2022-07-25T03:26:25;15.70;99.90
22167;DHT22;11249;52.468;13.776;2022-07-25T03:28:51;15.70;99.90
22167;DHT22;11249;52.468;13.776;2022-07-25T03:31:18;15.80;99.90
22167;DHT22;11249;52.468;13.776;2022-07-25T03:33:51;15.70;99.90
22167;DHT22;11249;52.468;13.776;2022-07-25T03:36:24;15.70;99.90
22167;DHT22;11249;52.468;13.776;2022-07-25T03:38:50;15.80;99.90
22167;DHT22;11249;52.468;13.776;2022-07-25T03:41:24;15.80;99.90
22167;DHT22;11249;52.468;13.776;2022-07-25T03:43:58;15.80;99.90
22167;DHT22;11249;52.468;13.776;2022-07-25T03:46:25;15.80;99.90
22167;DHT22;11249;52.468;13.776;2022-07-25T03:48:51;15.90;99.90
22167;DHT22;11249;52.468;13.776;2022-07-25T03:51:25;15.90;99.90
22167;DHT22;11249;52.468;13.776;2022-07-25T03:53:58;15.90;99.90
22167;DHT22;11249;52.468;13.776;2022-07-25T03:56:35;15.90;99.90
22167;DHT22;11249;52.468;13.776;2022-07-25T03:59:17;15.90;99.90
22167;DHT22;11249;52.468;13.776;2022-07-25T04:01:45;15.90;99.90
22167;DHT22;11249;52.468;13.776;2022-07-25T04:04:13;15.90;99.90
22167;DHT22;11249;52.468;13.776;2022-07-25T04:06:46;15.90;99.90
22167;DHT22;11249;52.468;13.776;2022-07-25T04:09:12;16.00;99.90
22167;DHT22;11249;52.468;13.776;2022-07-25T04:11:47;16.00;99.90
22167;DHT22;11249;52.468;13.776;2022-07-25T04:14:20;16.00;99.90
22167;DHT22;11249;52.468;13.776;2022-07-25T04:16:47;16.00;99.90
22167;DHT22;11249;52.468;13.776;2022-07-25T04:19:20;16.00;99.90
22167;DHT22;11249;52.468;13.776;2022-07-25T04:21:47;16.00;99.90
22167;DHT22;11249;52.468;13.776;2022-07-25T04:24:14;16.00;99.90
22167;DHT22;11249;52.468;13.776;2022-07-25T04:26:48;16.10;99.90
22167;DHT22;11249;52.468;13.776;2022-07-25T04:29:15;16.10;99.90
22167;DHT22;11249;52.468;13.776;2022-07-25T04:31:42;16.10;99.90
22167;DHT22;11249;52.468;13.776;2022-07-25T04:34:15;16.10;99.90
22167;DHT22;11249;52.468;13.776;2022-07-25T04:36:48;16.10;99.90
22167;DHT22;11249;52.468;13.776;2022-07-25T04:39:22;16.10;99.90
22167;DHT22;11249;52.468;13.776;2022-07-25T04:41:49;16.10;99.90
22167;DHT22;11249;52.468;13.776;2022-07-25T04:44:15;16.20;99.90
22167;DHT22;11249;52.468;13.776;2022-07-25T04:46:49;16.20;99.90
22167;DHT22;11249;52.468;13.776;2022-07-25T04:49:16;16.30;99.90
22167;DHT22;11249;52.468;13.776;2022-07-25T04:51:42;16.40;99.90
22167;DHT22;11249;52.468;13.776;2022-07-25T04:54:16;16.40;99.90
22167;DHT22;11249;52.468;13.776;2022-07-25T04:56:42;16.50;99.90
22167;DHT22;11249;52.468;13.776;2022-07-25T04:59:16;16.50;99.90
22167;DHT22;11249;52.468;13.776;2022-07-25T05:01:49;16.70;99.90
22167;DHT22;11249;52.468;13.776;2022-07-25T05:04:16;16.70;99.90
22167;DHT22;11249;52.468;13.776;2022-07-25T05:06:49;16.80;99.90
22167;DHT22;11249;52.468;13.776;2022-07-25T05:09:18;16.90;99.90
22167;DHT22;11249;52.468;13.776;2022-07-25T05:11:52;17.10;99.90
22167;DHT22;11249;52.468;13.776;2022-07-25T05:14:26;17.30;99.90
22167;DHT22;11249;52.468;13.776;2022-07-25T05:16:53;17.40;99.90
22167;DHT22;11249;52.468;13.776;2022-07-25T05:19:19;17.60;99.90
22167;DHT22;11249;52.468;13.776;2022-07-25T05:21:53;17.70;99.90
22167;DHT22;11249;52.468;13.776;2022-07-25T05:24:20;17.90;99.90
22167;DHT22;11249;52.468;13.776;2022-07-25T05:26:55;18.10;99.90
22167;DHT22;11249;52.468;13.776;2022-07-25T05:29:22;18.20;99.90
22167;DHT22;11249;52.468;13.776;2022-07-25T05:31:48;18.40;99.90
22167;DHT22;11249;52.468;13.776;2022-07-25T05:34:23;18.50;99.90
22167;DHT22;11249;52.468;13.776;2022-07-25T05:36:49;18.60;99.90
22167;DHT22;11249;52.468;13.776;2022-07-25T05:39:16;18.70;99.90
22167;DHT22;11249;52.468;13.776;2022-07-25T05:41:49;18.80;99.90
22167;DHT22;11249;52.468;13.776;2022-07-25T05:44:16;18.90;99.90
22167;DHT22;11249;52.468;13.776;2022-07-25T05:46:49;19.00;99.90
22167;DHT22;11249;52.468;13.776;2022-07-25T05:49:22;19.10;99.90
22167;DHT22;11249;52.468;13.776;2022-07-25T05:51:49;19.30;99.90
22167;DHT22;11249;52.468;13.776;2022-07-25T05:54:16;19.40;99.90
22167;DHT22;11249;52.468;13.776;2022-07-25T05:56:56;19.60;99.90
22167;DHT22;11249;52.468;13.776;2022-07-25T05:59:29;19.70;99.90
22167;DHT22;11249;52.468;13.776;2022-07-25T06:02:02;19.70;99.90
22167;DHT22;11249;52.468;13.776;2022-07-25T06:04:29;19.90;99.90
22167;DHT22;11249;52.468;13.776;2022-07-25T06:07:02;20.00;99.90
22167;DHT22;11249;52.468;13.776;2022-07-25T06:09:29;20.20;99.90
22167;DHT22;11249;52.468;13.776;2022-07-25T06:12:04;20.40;99.90
22167;DHT22;11249;52.468;13.776;2022-07-25T06:14:38;20.50;99.90
22167;DHT22;11249;52.468;13.776;2022-07-25T06:17:05;20.80;99.90
22167;DHT22;11249;52.468;13.776;2022-07-25T06:19:31;20.90;99.90
22167;DHT22;11249;52.468;13.776;2022-07-25T06:22:05;21.00;99.90
22167;DHT22;11249;52.468;13.776;2022-07-25T06:24:40;21.20;99.90
22167;DHT22;11249;52.468;13.776;2022-07-25T06:27:13;21.50;99.90
22167;DHT22;11249;52.468;13.776;2022-07-25T06:29:46;21.50;99.90
22167;DHT22;11249;52.468;13.776;2022-07-25T06:32:20;21.60;99.90
22167;DHT22;11249;52.468;13.776;2022-07-25T06:34:53;21.70;99.90
22167;DHT22;11249;52.468;13.776;2022-07-25T06:37:26;21.90;99.90
22167;DHT22;11249;52.468;13.776;2022-07-25T06:39:53;21.90;99.90
22167;DHT22;11249;52.468;13.776;2022-07-25T06:42:19;22.10;99.90
22167;DHT22;11249;52.468;13.776;2022-07-25T06:44:54;22.20;99.90
22167;DHT22;11249;52.468;13.776;2022-07-25T06:47:20;22.40;99.90
22167;DHT22;11249;52.468;13.776;2022-07-25T06:49:47;22.50;99.90
22167;DHT22;11249;52.468;13.776;2022-07-25T06:52:20;22.60;99.90
22167;DHT22;11249;52.468;13.776;2022-07-25T06:54:46;22.70;99.90
22167;DHT22;11249;52.468;13.776;2022-07-25T06:57:20;22.80;99.90
22167;DHT22;11249;52.468;13.776;2022-07-25T06:59:53;22.90;99.90
22167;DHT22;11249;52.468;13.776;2022-07-25T07:02:26;23.00;99.90
22167;DHT22;11249;52.468;13.776;2022-07-25T07:04:52;23.10;99.90
22167;DHT22;11249;52.468;13.776;2022-07-25T07:07:26;23.20;99.90
22167;DHT22;11249;52.468;13.776;2022-07-25T07:09:53;23.30;99.90
22167;DHT22;11249;52.468;13.776;2022-07-25T07:12:26;23.40;99.90
22167;DHT22;11249;52.468;13.776;2022-07-25T07:14:53;23.60;99.90
22167;DHT22;11249;52.468;13.776;2022-07-25T07:17:26;23.70;99.90
22167;DHT22;11249;52.468;13.776;2022-07-25T07:19:52;23.70;99.90
22167;DHT22;11249;52.468;13.776;2022-07-25T07:22:26;23.80;99.90
22167;DHT22;11249;52.468;13.776;2022-07-25T07:24:53;23.90;99.90
22167;DHT22;11249;52.468;13.776;2022-07-25T07:27:26;24.00;99.90
22167;DHT22;11249;52.468;13.776;2022-07-25T07:29:53;24.00;99.90
22167;DHT22;11249;52.468;13.776;2022-07-25T07:32:20;24.10;99.90
22167;DHT22;11249;52.468;13.776;2022-07-25T07:34:54;24.10;99.90
22167;DHT22;11249;52.468;13.776;2022-07-25T07:37:20;24.20;99.90
22167;DHT22;11249;52.468;13.776;2022-07-25T07:40:03;24.30;99.90
22167;DHT22;11249;52.468;13.776;2022-07-25T07:42:46;24.50;99.90
22167;DHT22;11249;52.468;13.776;2022-07-25T07:45:19;24.60;99.90
22167;DHT22;11249;52.468;13.776;2022-07-25T07:47:53;24.70;99.90
22167;DHT22;11249;52.468;13.776;2022-07-25T07:50:27;24.80;99.90
22167;DHT22;11249;52.468;13.776;2022-07-25T07:52:54;24.90;99.90
22167;DHT22;11249;52.468;13.776;2022-07-25T07:55:21;25.00;99.90
22167;DHT22;11249;52.468;13.776;2022-07-25T07:58:21;25.10;99.90
22167;DHT22;11249;52.468;13.776;2022-07-25T08:00:49;25.30;99.90
22167;DHT22;11249;52.468;13.776;2022-07-25T08:03:23;25.50;99.90
22167;DHT22;11249;52.468;13.776;2022-07-25T08:05:50;25.60;99.90
22167;DHT22;11249;52.468;13.776;2022-07-25T08:08:24;25.70;99.90
22167;DHT22;11249;52.468;13.776;2022-07-25T08:10:57;25.80;99.90
22167;DHT22;11249;52.468;13.776;2022-07-25T08:13:30;25.90;99.90
22167;DHT22;11249;52.468;13.776;2022-07-25T08:16:00;26.10;99.90
22167;DHT22;11249;52.468;13.776;2022-07-25T08:18:35;26.30;99.90
22167;DHT22;11249;52.468;13.776;2022-07-25T08:21:03;26.30;99.90
22167;DHT22;11249;52.468;13.776;2022-07-25T08:23:35;26.40;99.90
22167;DHT22;11249;52.468;13.776;2022-07-25T08:26:10;26.60;99.90
22167;DHT22;11249;52.468;13.776;2022-07-25T08:28:43;26.70;99.90
22167;DHT22;11249;52.468;13.776;2022-07-25T08:31:36;26.90;99.90
22167;DHT22;11249;52.468;13.776;2022-07-25T08:34:09;26.90;99.90
22167;DHT22;11249;52.468;13.776;2022-07-25T08:36:36;27.10;99.90
22167;DHT22;11249;52.468;13.776;2022-07-25T08:39:11;27.30;99.90
22167;DHT22;11249;52.468;13.776;2022-07-25T08:41:39;27.50;99.90
22167;DHT22;11249;52.468;13.776;2022-07-25T08:44:13;27.60;99.90
22167;DHT22;11249;52.468;13.776;2022-07-25T08:46:50;27.60;99.90
22167;DHT22;11249;52.468;13.776;2022-07-25T08:49:23;27.60;99.90
22167;DHT22;11249;52.468;13.776;2022-07-25T08:51:56;27.80;99.90
22167;DHT22;11249;52.468;13.776;2022-07-25T08:54:30;27.80;99.90
22167;DHT22;11249;52.468;13.776;2022-07-25T08:57:10;28.00;99.90
22167;DHT22;11249;52.468;13.776;2022-07-25T08:59:50;28.10;99.90
22167;DHT22;11249;52.468;13.776;2022-07-25T09:02:25;28.20;99.90
22167;DHT22;11249;52.468;13.776;2022-07-25T09:04:53;28.20;99.90
22167;DHT22;11249;52.468;13.776;2022-07-25T09:07:38;28.20;99.90
22167;DHT22;11249;52.468;13.776;2022-07-25T09:10:16;28.30;99.90
22167;DHT22;11249;52.468;13.776;2022-07-25T09:13:01;28.40;99.90
22167;DHT22;11249;52.468;13.776;2022-07-25T09:15:44;28.50;99.90
22167;DHT22;11249;52.468;13.776;2022-07-25T09:18:14;28.70;99.90
22167;DHT22;11249;52.468;13.776;2022-07-25T09:20:50;28.80;99.90
22167;DHT22;11249;52.468;13.776;2022-07-25T09:23:31;28.90;99.90
22167;DHT22;11249;52.468;13.776;2022-07-25T09:26:12;29.10;99.90
22167;DHT22;11249;52.468;13.776;2022-07-25T09:28:47;29.10;99.90
22167;DHT22;11249;52.468;13.776;2022-07-25T09:31:15;29.20;99.90
22167;DHT22;11249;52.468;13.776;2022-07-25T09:33:54;29.40;99.90
22167;DHT22;11249;52.468;13.776;2022-07-25T09:36:22;29.40;99.90
22167;DHT22;11249;52.468;13.776;2022-07-25T09:38:59;29.50;99.90
22167;DHT22;11249;52.468;13.776;2022-07-25T09:41:36;29.60;99.90
22167;DHT22;11249;52.468;13.776;2022-07-25T09:44:20;29.70;99.90
22167;DHT22;11249;52.468;13.776;2022-07-25T09:46:49;29.80;99.90
22167;DHT22;11249;52.468;13.776;2022-07-25T09:49:23;29.90;99.90
22167;DHT22;11249;52.468;13.776;2022-07-25T09:51:57;29.90;99.90
22167;DHT22;11249;52.468;13.776;2022-07-25T09:54:24;30.00;99.90
22167;DHT22;11249;52.468;13.776;2022-07-25T09:56:51;30.10;99.90
22167;DHT22;11249;52.468;13.776;2022-07-25T09:59:32;30.30;99.90
22167;DHT22;11249;52.468;13.776;2022-07-25T10:05:29;30.40;99.90
22167;DHT22;11249;52.468;13.776;2022-07-25T10:07:57;30.50;99.90
22167;DHT22;11249;52.468;13.776;2022-07-25T10:10:36;30.60;99.90
22167;DHT22;11249;52.468;13.776;2022-07-25T10:13:06;30.70;99.90
22167;DHT22;11249;52.468;13.776;2022-07-25T10:15:50;30.90;99.90
22167;DHT22;11249;52.468;13.776;2022-07-25T10:18:26;30.90;99.90
22167;DHT22;11249;52.468;13.776;2022-07-25T10:21:07;30.90;99.90
22167;DHT22;11249;52.468;13.776;2022-07-25T10:24:01;30.90;99.90
22167;DHT22;11249;52.468;13.776;2022-07-25T10:26:29;30.90;99.90
22167;DHT22;11249;52.468;13.776;2022-07-25T10:29:07;31.10;99.90
22167;DHT22;11249;52.468;13.776;2022-07-25T10:31:42;31.30;99.90
22167;DHT22;11249;52.468;13.776;2022-07-25T10:34:28;31.50;99.90
22167;DHT22;11249;52.468;13.776;2022-07-25T10:37:16;31.70;99.90
22167;DHT22;11249;52.468;13.776;2022-07-25T10:39:53;32.00;99.90
22167;DHT22;11249;52.468;13.776;2022-07-25T10:42:22;32.20;99.90
22167;DHT22;11249;52.468;13.776;2022-07-25T10:44:56;32.40;99.90
22167;DHT22;11249;52.468;13.776;2022-07-25T10:47:25;32.70;99.90
22167;DHT22;11249;52.468;13.776;2022-07-25T10:50:01;32.90;99.90
22167;DHT22;11249;52.468;13.776;2022-07-25T10:52:56;33.20;99.90
22167;DHT22;11249;52.468;13.776;2022-07-25T10:55:34;33.40;99.90
22167;DHT22;11249;52.468;13.776;2022-07-25T10:58:07;33.50;99.90
22167;DHT22;11249;52.468;13.776;2022-07-25T11:00:47;33.40;99.90
22167;DHT22;11249;52.468;13.776;2022-07-25T11:03:14;33.70;99.90
22167;DHT22;11249;52.468;13.776;2022-07-25T11:05:47;33.70;99.90
22167;DHT22;11249;52.468;13.776;2022-07-25T11:08:32;33.80;99.90
22167;DHT22;11249;52.468;13.776;2022-07-25T11:11:00;33.50;99.90
22167;DHT22;11249;52.468;13.776;2022-07-25T11:13:41;33.60;99.90
22167;DHT22;11249;52.468;13.776;2022-07-25T11:16:08;33.50;99.90
22167;DHT22;11249;52.468;13.776;2022-07-25T11:18:42;33.50;99.90
22167;DHT22;11249;52.468;13.776;2022-07-25T11:21:09;33.70;99.90
22167;DHT22;11249;52.468;13.776;2022-07-25T11:23:49;34.00;99.90
22167;DHT22;11249;52.468;13.776;2022-07-25T11:26:16;34.60;99.90
22167;DHT22;11249;52.468;13.776;2022-07-25T11:28:50;35.00;99.90
22167;DHT22;11249;52.468;13.776;2022-07-25T11:31:23;35.30;98.60
22167;DHT22;11249;52.468;13.776;2022-07-25T11:33:50;35.50;98.30
22167;DHT22;11249;52.468;13.776;2022-07-25T11:36:17;35.60;97.80
22167;DHT22;11249;52.468;13.776;2022-07-25T11:38:50;35.90;97.30
22167;DHT22;11249;52.468;13.776;2022-07-25T11:41:28;36.10;97.40
22167;DHT22;11249;52.468;13.776;2022-07-25T11:44:02;36.30;96.50
22167;DHT22;11249;52.468;13.776;2022-07-25T11:46:43;36.50;95.40
22167;DHT22;11249;52.468;13.776;2022-07-25T11:49:17;36.60;95.00
22167;DHT22;11249;52.468;13.776;2022-07-25T11:51:50;36.50;94.60
22167;DHT22;11249;52.468;13.776;2022-07-25T11:54:24;36.20;93.90
22167;DHT22;11249;52.468;13.776;2022-07-25T11:56:57;36.10;93.50
22167;DHT22;11249;52.468;13.776;2022-07-25T11:59:40;36.20;94.20
22167;DHT22;11249;52.468;13.776;2022-07-25T12:02:26;36.60;94.40
22167;DHT22;11249;52.468;13.776;2022-07-25T12:04:58;36.90;93.40
22167;DHT22;11249;52.468;13.776;2022-07-25T12:07:40;37.20;93.20
22167;DHT22;11249;52.468;13.776;2022-07-25T12:10:10;37.40;92.80
22167;DHT22;11249;52.468;13.776;2022-07-25T12:13:06;37.80;92.00
22167;DHT22;11249;52.468;13.776;2022-07-25T12:15:42;37.60;91.60
22167;DHT22;11249;52.468;13.776;2022-07-25T12:18:15;37.60;91.80
22167;DHT22;11249;52.468;13.776;2022-07-25T12:20:43;37.70;91.80
22167;DHT22;11249;52.468;13.776;2022-07-25T12:23:11;38.10;91.20
22167;DHT22;11249;52.468;13.776;2022-07-25T12:25:45;37.80;91.10
22167;DHT22;11249;52.468;13.776;2022-07-25T12:28:12;37.30;90.60
22167;DHT22;11249;52.468;13.776;2022-07-25T12:30:40;37.10;91.30
22167;DHT22;11249;52.468;13.776;2022-07-25T12:33:21;37.40;91.00
22167;DHT22;11249;52.468;13.776;2022-07-25T12:35:49;37.30;90.80
22167;DHT22;11249;52.468;13.776;2022-07-25T12:38:22;37.40;90.40
22167;DHT22;11249;52.468;13.776;2022-07-25T12:40:55;37.50;89.90
22167;DHT22;11249;52.468;13.776;2022-07-25T12:43:29;37.50;89.70
22167;DHT22;11249;52.468;13.776;2022-07-25T12:45:56;38.00;89.20
22167;DHT22;11249;52.468;13.776;2022-07-25T12:48:29;38.00;89.20
22167;DHT22;11249;52.468;13.776;2022-07-25T12:50:56;38.40;89.20
22167;DHT22;11249;52.468;13.776;2022-07-25T12:53:29;38.50;88.90
22167;DHT22;11249;52.468;13.776;2022-07-25T12:56:07;38.20;88.20
22167;DHT22;11249;52.468;13.776;2022-07-25T12:58:41;38.00;88.80
22167;DHT22;11249;52.468;13.776;2022-07-25T13:01:14;38.30;88.30
22167;DHT22;11249;52.468;13.776;2022-07-25T13:03:41;38.10;86.30
22167;DHT22;11249;52.468;13.776;2022-07-25T13:06:14;38.30;86.80
22167;DHT22;11249;52.468;13.776;2022-07-25T13:08:47;38.80;86.80
22167;DHT22;11249;52.468;13.776;2022-07-25T13:11:20;38.90;84.80
22167;DHT22;11249;52.468;13.776;2022-07-25T13:13:53;38.80;85.30
22167;DHT22;11249;52.468;13.776;2022-07-25T13:16:20;38.80;84.50
22167;DHT22;11249;52.468;13.776;2022-07-25T13:18:47;38.90;85.90
22167;DHT22;11249;52.468;13.776;2022-07-25T13:21:20;39.00;84.10
22167;DHT22;11249;52.468;13.776;2022-07-25T13:23:53;39.20;84.00
22167;DHT22;11249;52.468;13.776;2022-07-25T13:26:26;39.10;81.60
22167;DHT22;11249;52.468;13.776;2022-07-25T13:28:53;39.50;83.00
22167;DHT22;11249;52.468;13.776;2022-07-25T13:31:26;39.30;82.00
22167;DHT22;11249;52.468;13.776;2022-07-25T13:33:53;39.00;82.60
22167;DHT22;11249;52.468;13.776;2022-07-25T13:36:26;38.70;82.80
22167;DHT22;11249;52.468;13.776;2022-07-25T13:38:53;38.50;81.60
22167;DHT22;11249;52.468;13.776;2022-07-25T13:41:26;38.60;83.20
22167;DHT22;11249;52.468;13.776;2022-07-25T13:44:00;38.50;83.00
22167;DHT22;11249;52.468;13.776;2022-07-25T13:46:27;38.50;82.80
22167;DHT22;11249;52.468;13.776;2022-07-25T13:49:00;38.50;83.30
22167;DHT22;11249;52.468;13.776;2022-07-25T13:51:27;38.30;82.10
22167;DHT22;11249;52.468;13.776;2022-07-25T13:53:53;38.00;82.70
22167;DHT22;11249;52.468;13.776;2022-07-25T13:56:27;38.10;83.00
22167;DHT22;11249;52.468;13.776;2022-07-25T13:58:54;38.10;82.20
22167;DHT22;11249;52.468;13.776;2022-07-25T14:01:41;38.20;83.40
22167;DHT22;11249;52.468;13.776;2022-07-25T14:04:32;38.00;81.60
22167;DHT22;11249;52.468;13.776;2022-07-25T14:07:06;37.90;81.40
22167;DHT22;11249;52.468;13.776;2022-07-25T14:09:32;37.90;81.80
22167;DHT22;11249;52.468;13.776;2022-07-25T14:12:06;38.10;81.60
22167;DHT22;11249;52.468;13.776;2022-07-25T14:14:33;38.20;79.90
22167;DHT22;11249;52.468;13.776;2022-07-25T14:16:59;38.40;80.30
22167;DHT22;11249;52.468;13.776;2022-07-25T14:19:33;38.70;79.30
22167;DHT22;11249;52.468;13.776;2022-07-25T14:22:00;38.50;79.30
22167;DHT22;11249;52.468;13.776;2022-07-25T14:24:26;38.30;80.40
22167;DHT22;11249;52.468;13.776;2022-07-25T14:27:00;38.30;79.70
22167;DHT22;11249;52.468;13.776;2022-07-25T14:29:27;38.10;80.90
22167;DHT22;11249;52.468;13.776;2022-07-25T14:32:01;38.20;79.80
22167;DHT22;11249;52.468;13.776;2022-07-25T14:34:28;38.40;80.00
22167;DHT22;11249;52.468;13.776;2022-07-25T14:37:01;39.00;79.40
22167;DHT22;11249;52.468;13.776;2022-07-25T14:39:35;39.40;79.00
22167;DHT22;11249;52.468;13.776;2022-07-25T14:42:09;40.00;79.30
22167;DHT22;11249;52.468;13.776;2022-07-25T14:44:37;39.90;76.00
22167;DHT22;11249;52.468;13.776;2022-07-25T14:47:11;40.10;77.10
22167;DHT22;11249;52.468;13.776;2022-07-25T14:49:39;40.00;76.30
22167;DHT22;11249;52.468;13.776;2022-07-25T14:52:06;40.00;75.30
22167;DHT22;11249;52.468;13.776;2022-07-25T14:54:39;40.00;74.90
22167;DHT22;11249;52.468;13.776;2022-07-25T14:57:12;40.50;74.60
22167;DHT22;11249;52.468;13.776;2022-07-25T14:59:52;40.80;74.60
22167;DHT22;11249;52.468;13.776;2022-07-25T15:02:25;40.80;73.40
22167;DHT22;11249;52.468;13.776;2022-07-25T15:04:58;40.60;73.80
22167;DHT22;11249;52.468;13.776;2022-07-25T15:07:24;40.90;73.90
22167;DHT22;11249;52.468;13.776;2022-07-25T15:09:58;41.50;73.20
22167;DHT22;11249;52.468;13.776;2022-07-25T15:12:31;41.80;73.00
22167;DHT22;11249;52.468;13.776;2022-07-25T15:14:58;41.90;70.50
22167;DHT22;11249;52.468;13.776;2022-07-25T15:17:24;41.10;71.30
22167;DHT22;11249;52.468;13.776;2022-07-25T15:19:59;40.80;70.70
22167;DHT22;11249;52.468;13.776;2022-07-25T15:22:32;40.70;72.10
22167;DHT22;11249;52.468;13.776;2022-07-25T15:24:59;40.40;73.10
22167;DHT22;11249;52.468;13.776;2022-07-25T15:27:45;40.40;73.80
22167;DHT22;11249;52.468;13.776;2022-07-25T15:30:19;40.20;73.60
22167;DHT22;11249;52.468;13.776;2022-07-25T15:32:49;39.70;73.00
22167;DHT22;11249;52.468;13.776;2022-07-25T15:35:22;39.20;73.70
22167;DHT22;11249;52.468;13.776;2022-07-25T15:37:49;38.90;74.90
22167;DHT22;11249;52.468;13.776;2022-07-25T15:40:22;38.40;73.80
22167;DHT22;11249;52.468;13.776;2022-07-25T15:42:49;37.80;75.70
22167;DHT22;11249;52.468;13.776;2022-07-25T15:45:23;37.50;76.10
22167;DHT22;11249;52.468;13.776;2022-07-25T15:47:59;37.00;76.60
22167;DHT22;11249;52.468;13.776;2022-07-25T15:50:26;36.70;77.70